Flight Track Log - Related Links

Times and Time Zones

All times are in EDT time to prevent confusion due to time zone crossing. See the EJA951 flight status page for this flight to view local times or setup timezone preferences in your user account.

Time Position Orientation Groundspeed Altitude Reporting Facility
EDT Latitude Longitude Course Direction KTS MPH feet Rate Location/Type
Fri 01:16:45 PM 28.4258 -99.2244 30° Northeast 299 344 8,300  Level Houston Center
Fri 01:17:47 PM 28.4964 -99.1786 30° Northeast 312 359 10,100 1,824 Climbing Houston Center
Fri 01:18:50 PM 28.6000 -99.1267 24° Northeast 341 392 12,100 1,968 Climbing Houston Center
Fri 01:19:52 PM 28.6989 -99.0803 22° Northeast 380 437 14,200 1,790 Climbing Houston Center
Fri 01:20:54 PM 28.8000 -99.0336 22° Northeast 388 447 15,800 1,694 Climbing Houston Center
Fri 01:21:56 PM 28.9172 -98.9750 24° Northeast 412 474 17,700 1,548 Climbing Houston Center
Fri 01:22:00 PM 29.0200 -98.9276 30° Northeast  Level Estimated
Fri 01:22:58 PM 29.0200 -98.9056 31° Northeast 428 493 19,000  Level Houston Center
Fri 01:24:00 PM 29.1328 -98.8258 32° Northeast 441 507 19,200 823 Climbing Houston Center
Fri 01:25:02 PM 29.2389 -98.7503 32° Northeast 448 516 20,700 1,500 Climbing Houston Center
Fri 01:26:04 PM 29.3564 -98.6669 32° Northeast 459 528 22,300 1,488 Climbing Houston Center
Fri 01:27:07 PM 29.4672 -98.5875 32° Northeast 467 537 23,800 1,248 Climbing Houston Center
Fri 01:28:09 PM 29.5775 -98.5314 24° Northeast 477 549 24,900 1,500 Climbing Houston Center
Fri 01:29:11 PM 29.7319 -98.5058 North 469 540 26,900 1,645 Climbing Houston Center
Fri 01:30:13 PM 29.8600 -98.4831 North 466 536 28,300 1,016 Climbing Houston Center
Fri 01:31:15 PM 30.0006 -98.4586 North 501 577 29,000 339 Climbing Houston Center
Fri 01:32:17 PM 30.1361 -98.4339 North 496 571 29,000  Level Houston Center
Fri 01:33:19 PM 30.2772 -98.4072 North 495 570 29,000  Level Houston Center
Fri 01:34:21 PM 30.4239 -98.3828 North 499 574 29,000  Level Houston Center
Fri 01:35:24 PM 30.5603 -98.3581 North 493 567 29,000  Level Houston Center
Fri 01:36:26 PM 30.6967 -98.3328 North 490 564 29,000  Level Houston Center
Fri 01:37:28 PM 30.8328 -98.3094 North 487 560 29,000  Level Houston Center
Fri 01:38:30 PM 30.9669 -98.2842 North 483 556 29,000  Level Houston Center
Fri 01:39:32 PM 31.0992 -98.2614 North 477 549 29,000 -61 Level Houston Center
Fri 01:40:08 PM 31.1897 -98.2439 North 479 551 28,900 -688 Descending Fort Worth Center
Fri 01:41:08 PM 31.3214 -98.1964 17° North 479 551 27,900 -1,050 Descending Fort Worth Center
Fri 01:42:08 PM 31.4492 -98.1342 23° Northeast 491 565 26,800 -1,050 Descending Fort Worth Center
Fri 01:43:08 PM 31.5792 -98.0522 28° Northeast 499 574 25,800 -1,150 Descending Fort Worth Center
Fri 01:44:08 PM 31.6942 -97.9847 27° Northeast 505 581 24,500 -1,800 Descending Fort Worth Center
Fri 01:45:08 PM 31.8239 -97.9072 27° Northeast 517 595 22,200 -2,250 Descending Fort Worth Center
Fri 01:46:08 PM 31.9453 -97.8294 29° Northeast 502 578 20,000 -2,182 Descending Fort Worth Center
Fri 01:47:09 PM 32.0731 -97.7517 27° Northeast 475 547 17,800 -2,000 Descending Fort Worth Center
Fri 01:48:08 PM 32.1775 -97.6883 27° Northeast 462 532 16,000 -2,017 Descending Fort Worth Center
Fri 01:49:08 PM 32.2967 -97.6125 28° Northeast 452 520 13,800 -1,835 Descending Fort Worth Center
Fri 01:50:09 PM 32.3844 -97.5586 27° Northeast 417 480 12,300 -1,400 Descending Fort Worth Center
Fri 01:51:08 PM 32.4742 -97.4997 29° Northeast 347 399 11,000 -655 Descending Fort Worth Center
Fri 01:52:08 PM 32.5389 -97.4233 45° Northeast 319 367 11,000  Level Fort Worth Center
Fri 01:53:08 PM 32.6017 -97.3492 45° Northeast 313 360 11,000  Level Fort Worth Center
Fri 01:54:08 PM 32.6683 -97.2703 45° Northeast 323 372 11,000  Level Fort Worth Center
Fri 01:55:08 PM 32.7350 -97.1911 45° Northeast 323 372 11,000 -50 Level Fort Worth Center
Fri 01:56:08 PM 32.7956 -97.1736 14° North 297 342 10,900 -800 Descending Fort Worth Center
Fri 01:57:08 PM 32.8750 -97.1711 North 251 289 9,400 -1,400 Descending Fort Worth Center
Fri 01:58:08 PM 32.9144 -97.0992 57° Northeast 227 261 8,100 -1,548 Descending Fort Worth Center
Fri 01:58:41 PM 32.9333 -97.0500 65° Northeast 256 295 7,000 -2,387 Descending Dallas / Fort Worth TRACON
Fri 01:59:41 PM 32.9333 -96.9667 90° East 225 259 4,400 -2,684 Descending Dallas / Fort Worth TRACON
Fri 02:00:35 PM 32.9000 -96.9167 128° Southeast 184 212 1,900 -1,684 Descending Dallas / Fort Worth TRACON
Fri 02:01:35 PM 32.8833 -96.8833 121° Southeast 133 153 1,200 -700 Descending Dallas / Fort Worth TRACON
Fri 02:03:00 PM 32.8471 -96.8518 109° East  Level Estimated
Fri 02:10:00 PM 32.8471 -96.8518 109° East  Level Estimated
Fri 02:11:00 PM 32.8471 -96.8518 109° East  Level Estimated

Login

Don't have an account? Register now (free) for customized features, flight alerts, and more!